createdAt,value
2022-08-09T00:02:06.746Z,16.47
2022-08-09T00:06:18.144Z,16.46
2022-08-09T00:08:39.059Z,16.45
2022-08-09T00:11:58.690Z,16.45
2022-08-09T00:15:14.740Z,16.46
2022-08-09T00:18:21.110Z,16.48
2022-08-09T00:21:28.052Z,16.47
2022-08-09T00:24:35.015Z,16.47
2022-08-09T00:27:44.176Z,16.48
2022-08-09T00:30:56.767Z,16.47
2022-08-09T00:34:03.085Z,16.46
2022-08-09T00:37:09.010Z,16.44
2022-08-09T00:40:17.393Z,16.42
2022-08-09T00:44:10.467Z,16.37
2022-08-09T00:46:56.882Z,16.33
2022-08-09T00:50:14.647Z,16.31
2022-08-09T00:53:24.006Z,16.26
2022-08-09T00:56:30.953Z,16.20
2022-08-09T00:59:41.102Z,16.17
2022-08-09T01:02:51.181Z,16.13
2022-08-09T01:06:17.576Z,16.08
2022-08-09T01:09:36.978Z,16.06
2022-08-09T01:12:52.922Z,16.01
2022-08-09T01:16:00.842Z,16.00
2022-08-09T01:19:42.701Z,15.98
2022-08-09T01:23:04.770Z,15.96
2022-08-09T01:26:55.959Z,15.92
2022-08-09T01:30:05.582Z,15.87
2022-08-09T01:33:15.823Z,15.82
2022-08-09T01:36:27.314Z,15.77
2022-08-09T01:39:36.722Z,15.71
2022-08-09T01:42:43.747Z,15.66
2022-08-09T01:45:51.429Z,15.61
2022-08-09T01:49:10.392Z,15.53
2022-08-09T01:52:21.088Z,15.48
2022-08-09T01:55:31.257Z,15.42
2022-08-09T01:58:40.226Z,15.40
2022-08-09T02:01:59.382Z,15.36
2022-08-09T02:05:15.309Z,15.33
2022-08-09T02:08:39.588Z,15.29
2022-08-09T02:11:50.191Z,15.27
2022-08-09T02:14:57.958Z,15.25
2022-08-09T02:18:10.521Z,15.19
2022-08-09T02:21:22.133Z,15.15
2022-08-09T02:24:35.602Z,15.14
2022-08-09T02:28:00.199Z,15.13
2022-08-09T02:31:12.575Z,15.08
2022-08-09T02:34:25.888Z,15.04
2022-08-09T02:37:51.279Z,15.03
2022-08-09T02:41:03.409Z,15.00
2022-08-09T02:44:25.562Z,14.97
2022-08-09T02:47:57.362Z,14.93
2022-08-09T02:51:05.638Z,14.88
2022-08-09T02:54:15.030Z,14.84
2022-08-09T02:57:23.963Z,14.81
2022-08-09T03:00:32.372Z,14.81
2022-08-09T03:04:17.475Z,14.83
2022-08-09T03:07:14.032Z,14.83
2022-08-09T03:10:22.053Z,14.84
2022-08-09T03:13:43.984Z,14.82
2022-08-09T03:16:58.248Z,14.81
2022-08-09T03:20:11.601Z,14.81
2022-08-09T03:23:24.688Z,14.83
2022-08-09T03:26:32.448Z,14.84
2022-08-09T03:29:57.373Z,14.84
2022-08-09T03:33:17.877Z,14.85
2022-08-09T03:36:27.352Z,14.86
2022-08-09T03:39:37.808Z,14.89
2022-08-09T03:42:44.599Z,14.90
2022-08-09T03:46:05.019Z,14.93
2022-08-09T03:49:19.224Z,14.95
2022-08-09T03:52:31.093Z,14.97
2022-08-09T03:55:40.828Z,15.00
2022-08-09T03:58:50.136Z,15.04
2022-08-09T04:01:59.139Z,15.08
2022-08-09T04:05:26.559Z,15.12
2022-08-09T04:08:33.160Z,15.17
2022-08-09T04:12:08.704Z,15.21
2022-08-09T04:15:42.552Z,15.27
2022-08-09T04:18:45.866Z,15.32
2022-08-09T04:21:52.550Z,15.38
2022-08-09T04:24:59.010Z,15.45
2022-08-09T04:28:05.482Z,15.50
2022-08-09T04:31:13.015Z,15.57
2022-08-09T04:34:30.593Z,15.65
2022-08-09T04:37:46.055Z,15.76
2022-08-09T04:40:56.368Z,16.00
2022-08-09T04:44:05.680Z,16.45
2022-08-09T04:47:12.477Z,16.94
2022-08-09T04:50:20.169Z,17.31
2022-08-09T04:53:26.362Z,17.43
2022-08-09T04:56:32.486Z,17.43
2022-08-09T04:59:40.923Z,17.38
2022-08-09T05:02:52.477Z,17.39
2022-08-09T05:06:06.526Z,17.40
2022-08-09T05:09:13.427Z,17.41
2022-08-09T05:12:22.626Z,17.41
2022-08-09T05:15:38.765Z,17.43
2022-08-09T05:18:57.344Z,17.47
2022-08-09T05:22:05.784Z,17.48
2022-08-09T05:25:32.709Z,17.51
2022-08-09T05:28:38.846Z,17.56
2022-08-09T05:31:46.587Z,17.59
2022-08-09T05:34:55.524Z,17.61
2022-08-09T05:38:02.003Z,17.63
2022-08-09T05:41:12.803Z,17.65
2022-08-09T05:44:22.075Z,17.65
2022-08-09T05:47:35.186Z,17.67
2022-08-09T05:51:12.098Z,17.63
2022-08-09T05:54:18.074Z,17.53
2022-08-09T05:57:25.012Z,17.53
2022-08-09T06:00:50.682Z,17.57
2022-08-09T06:03:58.926Z,17.62
2022-08-09T06:07:05.770Z,17.65
2022-08-09T06:10:18.114Z,17.66
2022-08-09T06:13:28.396Z,17.70
2022-08-09T06:16:40.435Z,17.73
2022-08-09T06:19:47.523Z,17.77
2022-08-09T06:22:55.543Z,17.84
2022-08-09T06:26:02.223Z,17.90
2022-08-09T06:29:09.489Z,17.96
2022-08-09T06:32:59.429Z,18.03
2022-08-09T06:35:56.902Z,18.13
2022-08-09T06:39:09.290Z,18.14
2022-08-09T06:42:19.847Z,18.15
2022-08-09T06:46:04.720Z,18.19
2022-08-09T07:02:13.408Z,18.97
2022-08-09T07:05:22.373Z,19.36
2022-08-09T07:08:27.865Z,19.57
2022-08-09T07:11:51.971Z,19.67
2022-08-09T07:14:59.099Z,19.74
2022-08-09T07:18:22.943Z,19.80
2022-08-09T07:21:30.975Z,19.89
2022-08-09T07:24:40.766Z,20.00
2022-08-09T07:27:55.470Z,20.15
2022-08-09T07:31:01.503Z,20.32
2022-08-09T07:34:08.302Z,20.49
2022-08-09T07:37:25.769Z,20.63
2022-08-09T07:40:54.179Z,20.74
2022-08-09T07:43:56.752Z,20.81
2022-08-09T07:47:02.178Z,20.83
2022-08-09T07:50:09.268Z,20.89
2022-08-09T07:53:15.065Z,20.92
2022-08-09T07:56:48.946Z,20.96
2022-08-09T08:00:02.727Z,21.00
2022-08-09T08:03:09.819Z,21.02
2022-08-09T08:06:21.175Z,21.05
2022-08-09T08:09:35.249Z,21.09
2022-08-09T08:12:50.003Z,21.12
2022-08-09T08:15:55.519Z,21.12
2022-08-09T08:19:04.824Z,21.16
2022-08-09T08:22:10.329Z,21.23
2022-08-09T08:25:15.965Z,21.25
2022-08-09T08:28:32.001Z,21.30
2022-08-09T08:31:56.464Z,21.37
2022-08-09T08:35:02.818Z,21.41
2022-08-09T08:38:11.592Z,21.46
2022-08-09T08:41:17.460Z,21.52
2022-08-09T08:44:28.766Z,21.59
2022-08-09T08:47:38.551Z,21.64
2022-08-09T08:50:51.956Z,21.70
2022-08-09T08:54:03.881Z,21.77
2022-08-09T08:57:12.016Z,21.86
2022-08-09T09:00:27.361Z,21.87
2022-08-09T09:03:37.910Z,21.94
2022-08-09T09:06:46.344Z,22.13
2022-08-09T09:10:01.919Z,22.45
2022-08-09T09:13:11.584Z,22.64
2022-08-09T09:16:30.369Z,22.85
2022-08-09T09:19:41.131Z,22.86
2022-08-09T09:23:01.470Z,22.87
2022-08-09T09:26:12.242Z,22.78
2022-08-09T09:29:40.966Z,22.78
2022-08-09T09:33:15.863Z,22.98
2022-08-09T09:36:23.072Z,23.06
2022-08-09T09:39:55.342Z,23.04
2022-08-09T09:42:59.266Z,23.07
2022-08-09T09:50:13.313Z,23.08
2022-08-09T09:52:58.505Z,23.29
2022-08-09T09:56:05.791Z,23.26
2022-08-09T09:59:13.058Z,23.39
2022-08-09T10:02:23.301Z,23.55
2022-08-09T10:06:03.598Z,23.72
2022-08-09T10:09:21.897Z,24.00
2022-08-09T10:12:31.641Z,24.17
2022-08-09T10:16:08.952Z,24.31
2022-08-09T10:19:15.728Z,24.33
2022-08-09T10:22:33.080Z,24.20
2022-08-09T10:26:06.219Z,24.28
2022-08-09T10:29:22.705Z,24.38
2022-08-09T10:32:42.532Z,24.31
2022-08-09T10:35:49.589Z,24.29
2022-08-09T10:38:59.791Z,24.19
2022-08-09T10:42:06.609Z,24.14
2022-08-09T10:45:16.504Z,24.02
2022-08-09T10:48:30.045Z,23.88
2022-08-09T10:51:56.324Z,23.85
2022-08-09T10:55:22.787Z,24.14
2022-08-09T11:15:50.919Z,24.45
2022-08-09T11:19:01.498Z,24.26
2022-08-09T11:22:18.837Z,24.35
2022-08-09T11:25:54.738Z,24.78
2022-08-09T11:29:01.139Z,25.12
2022-08-09T11:32:08.282Z,25.41
2022-08-09T11:35:18.873Z,25.50
2022-08-09T11:38:35.063Z,25.46
2022-08-09T11:41:48.781Z,25.66
2022-08-09T11:44:57.287Z,25.77
2022-08-09T11:48:26.154Z,25.90
2022-08-09T11:52:59.188Z,25.96
2022-08-09T11:55:53.660Z,25.78
2022-08-09T11:59:05.642Z,25.87
2022-08-09T12:02:16.904Z,26.08
2022-08-09T12:05:34.468Z,26.41
2022-08-09T12:08:51.018Z,26.48
2022-08-09T12:12:04.091Z,26.21
2022-08-09T12:15:50.323Z,26.24
2022-08-09T12:18:53.809Z,26.50
2022-08-09T12:22:03.206Z,26.57
2022-08-09T12:25:17.118Z,26.25
2022-08-09T12:29:12.311Z,25.89
2022-08-09T12:32:03.391Z,25.53
2022-08-09T12:35:13.446Z,25.17
2022-08-09T12:38:38.133Z,24.79
2022-08-09T12:41:44.861Z,24.55
2022-08-09T12:44:52.342Z,24.43
2022-08-09T12:48:01.071Z,24.48
2022-08-09T12:51:10.719Z,24.45
2022-08-09T12:54:17.960Z,24.44
2022-08-09T12:57:41.802Z,24.53
2022-08-09T13:00:48.723Z,24.72
2022-08-09T13:04:03.364Z,24.82
2022-08-09T13:07:19.899Z,24.78
2022-08-09T13:10:44.534Z,24.43
2022-08-09T13:14:42.348Z,24.19
2022-08-09T13:17:58.682Z,24.27
2022-08-09T13:22:33.434Z,24.45
2022-08-09T13:24:53.329Z,24.75
2022-08-09T13:28:03.158Z,25.02
2022-08-09T13:32:16.568Z,25.21
2022-08-09T13:34:42.294Z,25.34
2022-08-09T13:37:51.367Z,25.46
2022-08-09T13:41:46.954Z,25.68
2022-08-09T13:44:29.219Z,25.91
2022-08-09T13:47:49.564Z,25.90
2022-08-09T13:50:58.920Z,25.65
2022-08-09T13:54:05.218Z,25.68
2022-08-09T13:57:14.490Z,25.71
2022-08-09T14:00:44.822Z,25.71
2022-08-09T14:04:02.792Z,25.82
2022-08-09T14:07:11.500Z,25.80
2022-08-09T14:10:37.748Z,25.73
2022-08-09T14:14:24.822Z,25.50
2022-08-09T14:17:12.156Z,25.34
2022-08-09T14:20:18.905Z,25.17
2022-08-09T14:23:53.748Z,24.85
2022-08-09T14:26:53.517Z,24.68
2022-08-09T14:30:34.503Z,24.64
2022-08-09T14:33:26.338Z,24.65
2022-08-09T14:36:35.320Z,24.71
2022-08-09T14:39:48.558Z,24.73
2022-08-09T14:42:55.020Z,24.67
2022-08-09T14:46:54.552Z,24.61
2022-08-09T14:49:34.673Z,24.48
2022-08-09T14:52:55.421Z,24.25
2022-08-09T14:56:01.553Z,24.09
2022-08-09T14:59:09.039Z,23.96
2022-08-09T15:02:20.700Z,23.81
2022-08-09T15:05:27.274Z,23.69
2022-08-09T15:08:35.742Z,23.60
2022-08-09T15:11:48.657Z,23.55
2022-08-09T15:14:56.035Z,23.56
2022-08-09T15:18:02.276Z,23.54
2022-08-09T15:22:01.454Z,23.55
2022-08-09T15:24:35.023Z,23.55
2022-08-09T15:27:47.998Z,23.58
2022-08-09T15:31:08.644Z,23.58
2022-08-09T15:34:33.408Z,23.55
2022-08-09T15:37:57.133Z,23.54
2022-08-09T15:41:09.777Z,23.55
2022-08-09T15:44:16.190Z,23.57
2022-08-09T15:47:31.888Z,23.59
2022-08-09T15:50:52.428Z,23.59
2022-08-09T15:54:05.973Z,23.59
2022-08-09T15:57:14.152Z,23.58
2022-08-09T16:00:26.793Z,23.54
2022-08-09T16:03:37.951Z,23.49
2022-08-09T16:06:50.631Z,23.49
2022-08-09T16:10:03.976Z,23.47
2022-08-09T16:13:21.067Z,23.43
2022-08-09T16:16:41.758Z,23.39
2022-08-09T16:20:04.829Z,23.32
2022-08-09T16:23:15.145Z,23.28
2022-08-09T16:26:33.552Z,23.23
2022-08-09T16:29:50.540Z,23.21
2022-08-09T16:33:16.122Z,23.17
2022-08-09T16:36:22.634Z,23.12
2022-08-09T16:39:31.747Z,23.12
2022-08-09T16:42:54.551Z,23.15
2022-08-09T16:46:01.895Z,23.18
2022-08-09T16:49:17.731Z,23.19
2022-08-09T16:52:35.835Z,23.15
2022-08-09T16:56:01.407Z,23.09
2022-08-09T16:59:10.607Z,22.97
2022-08-09T17:02:17.791Z,22.83
2022-08-09T17:06:06.974Z,22.67
2022-08-09T17:08:58.926Z,22.51
2022-08-09T17:12:11.666Z,22.40
2022-08-09T17:15:31.082Z,22.35
2022-08-09T17:18:45.362Z,22.27
2022-08-09T17:21:54.448Z,22.17
2022-08-09T17:25:03.754Z,22.13
2022-08-09T17:28:10.983Z,22.10
2022-08-09T17:31:20.047Z,22.04
2022-08-09T17:35:00.827Z,22.00
2022-08-09T17:38:12.992Z,21.96
2022-08-09T17:41:21.485Z,21.90
2022-08-09T17:44:47.946Z,21.85
2022-08-09T17:48:02.696Z,21.81
2022-08-09T17:51:18.041Z,21.77
2022-08-09T17:54:29.592Z,21.72
2022-08-09T17:58:03.730Z,21.65
2022-08-09T18:01:02.252Z,21.57
2022-08-09T18:04:08.618Z,21.50
2022-08-09T18:07:22.979Z,21.42
2022-08-09T18:10:31.134Z,21.32
2022-08-09T18:13:56.514Z,21.23
2022-08-09T18:17:04.958Z,21.12
2022-08-09T18:20:54.060Z,21.02
2022-08-09T18:24:09.674Z,20.92
2022-08-09T18:27:06.849Z,20.83
2022-08-09T18:30:41.576Z,20.75
2022-08-09T18:33:44.278Z,20.65
2022-08-09T18:36:59.670Z,20.56
2022-08-09T18:40:07.218Z,20.48
2022-08-09T18:43:13.811Z,20.39
2022-08-09T18:46:46.759Z,20.30
2022-08-09T18:49:48.601Z,20.22
2022-08-09T18:53:00.767Z,20.13
2022-08-09T18:56:10.229Z,20.05
2022-08-09T18:59:16.614Z,19.93
2022-08-09T19:02:31.802Z,19.85
2022-08-09T19:06:02.270Z,19.79
2022-08-09T19:09:07.860Z,19.70
2022-08-09T19:12:21.832Z,19.59
2022-08-09T19:15:28.703Z,19.50
2022-08-09T19:18:38.690Z,19.44
2022-08-09T19:22:04.913Z,19.37
2022-08-09T19:25:41.754Z,19.30
2022-08-09T19:28:42.684Z,19.22
2022-08-09T19:31:59.863Z,19.15
2022-08-09T19:35:07.435Z,19.09
2022-08-09T19:38:13.658Z,19.03
2022-08-09T19:41:33.391Z,18.97
2022-08-09T19:44:42.142Z,18.92
2022-08-09T19:47:48.279Z,18.86
2022-08-09T19:50:54.544Z,18.81
2022-08-09T19:54:01.242Z,18.71
2022-08-09T19:57:08.513Z,18.62
2022-08-09T20:00:18.015Z,18.55
2022-08-09T20:04:26.567Z,18.50
2022-08-09T20:06:50.279Z,18.40
2022-08-09T20:09:56.434Z,18.28
2022-08-09T20:13:03.094Z,18.19
2022-08-09T20:16:34.006Z,18.12
2022-08-09T20:19:47.596Z,18.02
2022-08-09T20:22:56.329Z,17.91
2022-08-09T20:26:03.080Z,17.80
2022-08-09T20:29:19.054Z,17.74
2022-08-09T20:32:30.750Z,17.60
2022-08-09T20:35:40.200Z,17.49
2022-08-09T20:39:28.695Z,17.41
2022-08-09T20:42:17.820Z,17.34
2022-08-09T20:45:59.836Z,17.26
2022-08-09T20:48:51.615Z,17.18
2022-08-09T20:51:57.821Z,17.13
2022-08-09T20:55:09.075Z,17.13
2022-08-09T20:58:20.211Z,17.05
2022-08-09T21:01:34.274Z,16.94
2022-08-09T21:05:56.670Z,16.84
2022-08-09T21:08:20.287Z,16.73
2022-08-09T21:14:57.412Z,16.61
2022-08-09T21:18:22.453Z,16.58
2022-08-09T21:21:46.365Z,16.53
2022-08-09T21:25:13.622Z,16.52
2022-08-09T21:28:20.758Z,16.48
2022-08-09T21:31:49.364Z,16.41
2022-08-09T21:34:56.363Z,16.39
2022-08-09T21:38:03.026Z,16.32
2022-08-09T21:41:09.219Z,16.24
2022-08-09T21:44:33.307Z,16.14
2022-08-09T21:47:42.463Z,16.03
2022-08-09T21:50:51.330Z,15.94
2022-08-09T21:53:58.135Z,15.87
2022-08-09T21:57:05.833Z,15.81
2022-08-09T22:00:15.703Z,15.79
2022-08-09T22:03:25.489Z,15.74
2022-08-09T22:06:32.359Z,15.66
2022-08-09T22:09:38.531Z,15.62
2022-08-09T22:12:50.334Z,15.62
2022-08-09T22:15:56.406Z,15.59
2022-08-09T22:19:01.040Z,15.57
2022-08-09T22:22:07.485Z,15.55
2022-08-09T22:26:08.247Z,15.53
2022-08-09T22:28:47.364Z,15.51
2022-08-09T22:32:00.507Z,15.44
2022-08-09T22:36:02.260Z,15.39
2022-08-09T22:38:33.964Z,15.34
2022-08-09T22:41:43.702Z,15.30
2022-08-09T22:48:05.088Z,15.23
2022-08-09T22:48:35.919Z,15.15
2022-08-09T22:51:43.510Z,15.11
2022-08-09T22:54:56.249Z,15.09
2022-08-09T22:58:02.361Z,15.08
2022-08-09T23:01:11.591Z,15.03
2022-08-09T23:04:19.306Z,15.01
2022-08-09T23:08:27.353Z,14.97
2022-08-09T23:11:11.154Z,14.92
2022-08-09T23:14:17.735Z,14.90
2022-08-09T23:17:43.528Z,14.85
2022-08-09T23:20:48.055Z,14.80
2022-08-09T23:24:05.276Z,14.76
2022-08-09T23:27:13.283Z,14.71
2022-08-09T23:30:20.068Z,14.66
2022-08-09T23:33:26.629Z,14.62
2022-08-09T23:36:32.816Z,14.57
2022-08-09T23:39:39.064Z,14.51
2022-08-09T23:42:45.214Z,14.44
2022-08-09T23:45:49.612Z,14.40
2022-08-09T23:48:55.825Z,14.37
2022-08-09T23:52:01.945Z,14.33
2022-08-09T23:55:06.689Z,14.28
2022-08-09T23:58:26.102Z,14.24
